sensor_id;sensor_type;location;lat;lon;timestamp;P1;durP1;ratioP1;P2;durP2;ratioP2
2576;SDS011;1298;51.252;6.802;2023-11-19T00:00:57;8.07;;;7.30;;
2576;SDS011;1298;51.252;6.802;2023-11-19T00:03:45;10.45;;;7.95;;
2576;SDS011;1298;51.252;6.802;2023-11-19T00:06:30;7.93;;;7.13;;
2576;SDS011;1298;51.252;6.802;2023-11-19T00:09:16;7.45;;;6.75;;
2576;SDS011;1298;51.252;6.802;2023-11-19T00:12:02;7.57;;;6.88;;
2576;SDS011;1298;51.252;6.802;2023-11-19T00:14:47;7.13;;;5.90;;
2576;SDS011;1298;51.252;6.802;2023-11-19T00:17:33;7.15;;;6.38;;
2576;SDS011;1298;51.252;6.802;2023-11-19T00:20:20;6.80;;;6.00;;
2576;SDS011;1298;51.252;6.802;2023-11-19T00:23:06;6.85;;;6.25;;
2576;SDS011;1298;51.252;6.802;2023-11-19T00:25:52;6.32;;;5.72;;
2576;SDS011;1298;51.252;6.802;2023-11-19T00:28:37;7.65;;;6.43;;
2576;SDS011;1298;51.252;6.802;2023-11-19T00:31:23;43.67;;;31.83;;
2576;SDS011;1298;51.252;6.802;2023-11-19T00:34:11;14.45;;;11.75;;
2576;SDS011;1298;51.252;6.802;2023-11-19T00:36:58;7.00;;;6.30;;
2576;SDS011;1298;51.252;6.802;2023-11-19T00:39:44;8.77;;;6.38;;
2576;SDS011;1298;51.252;6.802;2023-11-19T00:42:30;7.60;;;6.25;;
2576;SDS011;1298;51.252;6.802;2023-11-19T00:45:16;6.63;;;5.80;;
2576;SDS011;1298;51.252;6.802;2023-11-19T00:48:01;6.60;;;5.47;;
2576;SDS011;1298;51.252;6.802;2023-11-19T00:50:47;7.90;;;5.95;;
2576;SDS011;1298;51.252;6.802;2023-11-19T00:53:34;7.68;;;5.68;;
2576;SDS011;1298;51.252;6.802;2023-11-19T00:56:19;6.13;;;4.88;;
2576;SDS011;1298;51.252;6.802;2023-11-19T00:59:05;6.07;;;5.10;;
2576;SDS011;1298;51.252;6.802;2023-11-19T01:01:51;6.25;;;4.85;;
2576;SDS011;1298;51.252;6.802;2023-11-19T01:04:36;4.70;;;4.30;;
2576;SDS011;1298;51.252;6.802;2023-11-19T01:07:22;5.18;;;4.65;;
2576;SDS011;1298;51.252;6.802;2023-11-19T01:10:09;5.93;;;4.97;;
2576;SDS011;1298;51.252;6.802;2023-11-19T01:12:55;4.78;;;4.13;;
2576;SDS011;1298;51.252;6.802;2023-11-19T01:15:41;4.00;;;3.43;;
2576;SDS011;1298;51.252;6.802;2023-11-19T01:18:27;3.67;;;3.23;;
2576;SDS011;1298;51.252;6.802;2023-11-19T01:21:12;3.20;;;3.00;;
2576;SDS011;1298;51.252;6.802;2023-11-19T01:23:58;3.08;;;2.75;;
2576;SDS011;1298;51.252;6.802;2023-11-19T01:26:46;3.25;;;2.25;;
2576;SDS011;1298;51.252;6.802;2023-11-19T01:29:31;2.30;;;2.20;;
2576;SDS011;1298;51.252;6.802;2023-11-19T01:32:17;2.50;;;2.30;;
2576;SDS011;1298;51.252;6.802;2023-11-19T01:35:03;4.25;;;2.67;;
2576;SDS011;1298;51.252;6.802;2023-11-19T01:37:48;3.07;;;2.37;;
2576;SDS011;1298;51.252;6.802;2023-11-19T01:40:35;3.90;;;2.05;;
2576;SDS011;1298;51.252;6.802;2023-11-19T01:46:24;3.75;;;2.63;;
2576;SDS011;1298;51.252;6.802;2023-11-19T01:49:11;2.23;;;2.00;;
2576;SDS011;1298;51.252;6.802;2023-11-19T01:51:59;3.03;;;2.33;;
2576;SDS011;1298;51.252;6.802;2023-11-19T01:54:44;2.83;;;2.10;;
2576;SDS011;1298;51.252;6.802;2023-11-19T01:57:30;2.40;;;1.88;;
2576;SDS011;1298;51.252;6.802;2023-11-19T02:00:17;2.53;;;2.07;;
2576;SDS011;1298;51.252;6.802;2023-11-19T02:03:03;2.13;;;1.92;;
2576;SDS011;1298;51.252;6.802;2023-11-19T02:05:51;4.93;;;2.30;;
2576;SDS011;1298;51.252;6.802;2023-11-19T02:08:37;2.30;;;2.10;;
2576;SDS011;1298;51.252;6.802;2023-11-19T02:11:23;3.72;;;2.17;;
2576;SDS011;1298;51.252;6.802;2023-11-19T02:14:13;5.55;;;2.80;;
2576;SDS011;1298;51.252;6.802;2023-11-19T02:17:00;5.97;;;2.57;;
2576;SDS011;1298;51.252;6.802;2023-11-19T02:19:45;2.80;;;2.20;;
2576;SDS011;1298;51.252;6.802;2023-11-19T02:22:31;3.65;;;2.50;;
2576;SDS011;1298;51.252;6.802;2023-11-19T02:25:18;3.65;;;2.33;;
2576;SDS011;1298;51.252;6.802;2023-11-19T02:28:08;5.68;;;3.45;;
2576;SDS011;1298;51.252;6.802;2023-11-19T02:30:55;4.47;;;3.00;;
2576;SDS011;1298;51.252;6.802;2023-11-19T02:33:41;4.87;;;3.10;;
2576;SDS011;1298;51.252;6.802;2023-11-19T02:36:26;6.17;;;3.40;;
2576;SDS011;1298;51.252;6.802;2023-11-19T02:39:12;4.47;;;3.13;;
2576;SDS011;1298;51.252;6.802;2023-11-19T02:41:57;5.20;;;4.10;;
2576;SDS011;1298;51.252;6.802;2023-11-19T02:44:45;6.20;;;3.70;;
2576;SDS011;1298;51.252;6.802;2023-11-19T02:47:32;5.97;;;4.00;;
2576;SDS011;1298;51.252;6.802;2023-11-19T02:50:17;8.60;;;4.00;;
2576;SDS011;1298;51.252;6.802;2023-11-19T02:53:08;6.63;;;4.33;;
2576;SDS011;1298;51.252;6.802;2023-11-19T02:55:54;9.50;;;4.60;;
2576;SDS011;1298;51.252;6.802;2023-11-19T02:58:44;7.30;;;4.10;;
2576;SDS011;1298;51.252;6.802;2023-11-19T03:01:32;9.52;;;4.40;;
2576;SDS011;1298;51.252;6.802;2023-11-19T03:04:19;10.23;;;4.53;;
2576;SDS011;1298;51.252;6.802;2023-11-19T03:07:07;11.50;;;4.60;;
2576;SDS011;1298;51.252;6.802;2023-11-19T03:09:52;8.32;;;4.00;;
2576;SDS011;1298;51.252;6.802;2023-11-19T03:12:38;8.63;;;5.17;;
2576;SDS011;1298;51.252;6.802;2023-11-19T03:15:23;10.30;;;4.07;;
2576;SDS011;1298;51.252;6.802;2023-11-19T03:18:10;8.00;;;4.00;;
2576;SDS011;1298;51.252;6.802;2023-11-19T03:20:56;7.97;;;4.50;;
2576;SDS011;1298;51.252;6.802;2023-11-19T03:23:42;9.23;;;4.10;;
2576;SDS011;1298;51.252;6.802;2023-11-19T03:26:27;10.80;;;4.83;;
2576;SDS011;1298;51.252;6.802;2023-11-19T03:29:13;12.43;;;4.97;;
2576;SDS011;1298;51.252;6.802;2023-11-19T03:31:58;13.20;;;4.93;;
2576;SDS011;1298;51.252;6.802;2023-11-19T03:34:45;9.90;;;5.17;;
2576;SDS011;1298;51.252;6.802;2023-11-19T03:37:31;12.32;;;4.97;;
2576;SDS011;1298;51.252;6.802;2023-11-19T03:40:17;12.15;;;4.50;;
2576;SDS011;1298;51.252;6.802;2023-11-19T03:43:03;8.05;;;4.25;;
2576;SDS011;1298;51.252;6.802;2023-11-19T03:45:49;6.53;;;4.40;;
2576;SDS011;1298;51.252;6.802;2023-11-19T03:48:35;11.40;;;4.37;;
2576;SDS011;1298;51.252;6.802;2023-11-19T03:51:21;8.77;;;4.27;;
2576;SDS011;1298;51.252;6.802;2023-11-19T03:54:07;13.40;;;5.40;;
2576;SDS011;1298;51.252;6.802;2023-11-19T03:56:53;8.90;;;4.00;;
2576;SDS011;1298;51.252;6.802;2023-11-19T03:59:38;11.87;;;5.00;;
2576;SDS011;1298;51.252;6.802;2023-11-19T04:02:24;11.90;;;5.03;;
2576;SDS011;1298;51.252;6.802;2023-11-19T04:05:11;15.43;;;5.05;;
2576;SDS011;1298;51.252;6.802;2023-11-19T04:07:58;16.70;;;4.83;;
2576;SDS011;1298;51.252;6.802;2023-11-19T04:10:44;9.23;;;4.90;;
2576;SDS011;1298;51.252;6.802;2023-11-19T04:13:29;18.17;;;5.17;;
2576;SDS011;1298;51.252;6.802;2023-11-19T04:16:15;10.40;;;4.00;;
2576;SDS011;1298;51.252;6.802;2023-11-19T04:19:00;14.03;;;5.63;;
2576;SDS011;1298;51.252;6.802;2023-11-19T04:21:46;13.90;;;4.50;;
2576;SDS011;1298;51.252;6.802;2023-11-19T04:24:33;16.05;;;4.63;;
2576;SDS011;1298;51.252;6.802;2023-11-19T04:27:18;16.10;;;4.90;;
2576;SDS011;1298;51.252;6.802;2023-11-19T04:30:04;13.13;;;4.50;;
2576;SDS011;1298;51.252;6.802;2023-11-19T04:32:54;11.85;;;5.20;;
2576;SDS011;1298;51.252;6.802;2023-11-19T04:35:40;17.35;;;4.75;;
2576;SDS011;1298;51.252;6.802;2023-11-19T04:38:26;18.27;;;4.77;;
2576;SDS011;1298;51.252;6.802;2023-11-19T04:41:12;15.63;;;5.20;;
2576;SDS011;1298;51.252;6.802;2023-11-19T04:43:58;16.60;;;5.10;;
2576;SDS011;1298;51.252;6.802;2023-11-19T04:46:43;15.77;;;5.47;;
2576;SDS011;1298;51.252;6.802;2023-11-19T04:49:29;11.50;;;5.30;;
2576;SDS011;1298;51.252;6.802;2023-11-19T04:52:14;13.00;;;5.30;;
2576;SDS011;1298;51.252;6.802;2023-11-19T04:55:00;13.83;;;5.20;;
2576;SDS011;1298;51.252;6.802;2023-11-19T04:57:47;11.63;;;4.80;;
2576;SDS011;1298;51.252;6.802;2023-11-19T05:00:32;16.05;;;4.95;;
2576;SDS011;1298;51.252;6.802;2023-11-19T05:03:18;14.40;;;5.60;;
2576;SDS011;1298;51.252;6.802;2023-11-19T05:06:04;17.05;;;4.88;;
2576;SDS011;1298;51.252;6.802;2023-11-19T05:08:50;11.15;;;5.43;;
2576;SDS011;1298;51.252;6.802;2023-11-19T05:11:35;13.77;;;5.72;;
2576;SDS011;1298;51.252;6.802;2023-11-19T05:14:23;23.47;;;6.17;;
2576;SDS011;1298;51.252;6.802;2023-11-19T05:17:09;18.83;;;5.43;;
2576;SDS011;1298;51.252;6.802;2023-11-19T05:19:55;15.73;;;5.73;;
2576;SDS011;1298;51.252;6.802;2023-11-19T05:22:41;20.37;;;6.30;;
2576;SDS011;1298;51.252;6.802;2023-11-19T05:25:27;17.83;;;6.07;;
2576;SDS011;1298;51.252;6.802;2023-11-19T05:28:13;13.30;;;5.33;;
2576;SDS011;1298;51.252;6.802;2023-11-19T05:31:00;15.90;;;5.03;;
2576;SDS011;1298;51.252;6.802;2023-11-19T05:33:46;16.90;;;4.63;;
2576;SDS011;1298;51.252;6.802;2023-11-19T05:36:31;15.05;;;5.22;;
2576;SDS011;1298;51.252;6.802;2023-11-19T05:39:17;15.17;;;4.23;;
2576;SDS011;1298;51.252;6.802;2023-11-19T05:42:04;16.40;;;5.50;;
2576;SDS011;1298;51.252;6.802;2023-11-19T05:44:49;14.70;;;4.53;;
2576;SDS011;1298;51.252;6.802;2023-11-19T05:47:37;15.55;;;4.80;;
2576;SDS011;1298;51.252;6.802;2023-11-19T05:50:22;18.42;;;5.57;;
2576;SDS011;1298;51.252;6.802;2023-11-19T05:53:08;12.63;;;5.60;;
2576;SDS011;1298;51.252;6.802;2023-11-19T05:55:54;19.77;;;5.63;;
2576;SDS011;1298;51.252;6.802;2023-11-19T05:58:39;15.32;;;5.10;;
2576;SDS011;1298;51.252;6.802;2023-11-19T06:01:25;20.35;;;5.97;;
2576;SDS011;1298;51.252;6.802;2023-11-19T06:04:12;18.90;;;6.50;;
2576;SDS011;1298;51.252;6.802;2023-11-19T06:06:58;14.82;;;4.90;;
2576;SDS011;1298;51.252;6.802;2023-11-19T06:09:43;16.55;;;5.88;;
2576;SDS011;1298;51.252;6.802;2023-11-19T06:12:29;17.13;;;5.88;;
2576;SDS011;1298;51.252;6.802;2023-11-19T06:15:17;16.80;;;6.37;;
2576;SDS011;1298;51.252;6.802;2023-11-19T06:18:02;17.70;;;6.35;;
2576;SDS011;1298;51.252;6.802;2023-11-19T06:20:50;18.40;;;5.37;;
2576;SDS011;1298;51.252;6.802;2023-11-19T06:23:36;19.67;;;6.00;;
2576;SDS011;1298;51.252;6.802;2023-11-19T06:26:21;15.47;;;5.47;;
2576;SDS011;1298;51.252;6.802;2023-11-19T06:29:07;15.05;;;4.63;;
2576;SDS011;1298;51.252;6.802;2023-11-19T06:31:52;14.20;;;5.82;;
2576;SDS011;1298;51.252;6.802;2023-11-19T06:34:38;20.85;;;6.80;;
2576;SDS011;1298;51.252;6.802;2023-11-19T06:37:25;17.85;;;6.88;;
2576;SDS011;1298;51.252;6.802;2023-11-19T06:40:11;9.55;;;3.92;;
2576;SDS011;1298;51.252;6.802;2023-11-19T06:42:59;15.27;;;5.50;;
2576;SDS011;1298;51.252;6.802;2023-11-19T06:45:46;19.25;;;6.10;;
2576;SDS011;1298;51.252;6.802;2023-11-19T06:48:31;17.75;;;6.22;;
2576;SDS011;1298;51.252;6.802;2023-11-19T06:51:17;20.80;;;6.10;;
2576;SDS011;1298;51.252;6.802;2023-11-19T06:54:05;17.77;;;6.13;;
2576;SDS011;1298;51.252;6.802;2023-11-19T06:56:50;16.58;;;7.70;;
2576;SDS011;1298;51.252;6.802;2023-11-19T06:59:36;14.32;;;6.13;;
2576;SDS011;1298;51.252;6.802;2023-11-19T07:02:21;22.77;;;6.20;;
2576;SDS011;1298;51.252;6.802;2023-11-19T07:05:07;21.33;;;7.00;;
2576;SDS011;1298;51.252;6.802;2023-11-19T07:07:53;15.38;;;6.70;;
2576;SDS011;1298;51.252;6.802;2023-11-19T07:10:39;17.88;;;5.80;;
2576;SDS011;1298;51.252;6.802;2023-11-19T07:13:25;18.67;;;6.07;;
2576;SDS011;1298;51.252;6.802;2023-11-19T07:16:13;20.08;;;6.60;;
2576;SDS011;1298;51.252;6.802;2023-11-19T07:18:59;16.48;;;6.00;;
2576;SDS011;1298;51.252;6.802;2023-11-19T07:21:44;19.90;;;6.03;;
2576;SDS011;1298;51.252;6.802;2023-11-19T07:24:30;27.55;;;7.55;;
2576;SDS011;1298;51.252;6.802;2023-11-19T07:27:16;18.10;;;7.15;;
2576;SDS011;1298;51.252;6.802;2023-11-19T07:30:02;22.05;;;6.70;;
2576;SDS011;1298;51.252;6.802;2023-11-19T07:32:49;19.63;;;6.55;;
2576;SDS011;1298;51.252;6.802;2023-11-19T07:35:34;22.85;;;8.13;;
2576;SDS011;1298;51.252;6.802;2023-11-19T07:38:20;19.58;;;6.45;;
2576;SDS011;1298;51.252;6.802;2023-11-19T07:41:06;17.50;;;7.13;;
2576;SDS011;1298;51.252;6.802;2023-11-19T07:43:54;18.08;;;6.90;;
2576;SDS011;1298;51.252;6.802;2023-11-19T07:46:40;21.08;;;5.95;;
2576;SDS011;1298;51.252;6.802;2023-11-19T07:49:28;25.85;;;7.68;;
2576;SDS011;1298;51.252;6.802;2023-11-19T07:52:14;19.00;;;6.03;;
2576;SDS011;1298;51.252;6.802;2023-11-19T07:55:00;25.40;;;8.68;;
2576;SDS011;1298;51.252;6.802;2023-11-19T07:57:46;28.95;;;10.23;;
2576;SDS011;1298;51.252;6.802;2023-11-19T08:00:35;27.55;;;7.35;;
2576;SDS011;1298;51.252;6.802;2023-11-19T08:03:22;19.85;;;6.65;;
2576;SDS011;1298;51.252;6.802;2023-11-19T08:06:07;29.20;;;7.13;;
2576;SDS011;1298;51.252;6.802;2023-11-19T08:08:53;17.42;;;5.80;;
2576;SDS011;1298;51.252;6.802;2023-11-19T08:11:39;23.25;;;5.68;;
2576;SDS011;1298;51.252;6.802;2023-11-19T08:14:25;22.23;;;7.05;;
2576;SDS011;1298;51.252;6.802;2023-11-19T08:17:13;16.23;;;5.28;;
2576;SDS011;1298;51.252;6.802;2023-11-19T08:19:59;19.45;;;6.38;;
2576;SDS011;1298;51.252;6.802;2023-11-19T08:22:45;30.00;;;7.63;;
2576;SDS011;1298;51.252;6.802;2023-11-19T08:25:31;18.35;;;6.65;;
2576;SDS011;1298;51.252;6.802;2023-11-19T08:28:17;21.55;;;6.88;;
2576;SDS011;1298;51.252;6.802;2023-11-19T08:31:04;26.05;;;6.55;;
2576;SDS011;1298;51.252;6.802;2023-11-19T08:33:51;19.58;;;7.25;;
2576;SDS011;1298;51.252;6.802;2023-11-19T08:36:37;21.73;;;6.80;;
2576;SDS011;1298;51.252;6.802;2023-11-19T08:39:22;17.52;;;5.55;;
2576;SDS011;1298;51.252;6.802;2023-11-19T08:42:08;15.20;;;6.60;;
2576;SDS011;1298;51.252;6.802;2023-11-19T08:44:53;24.20;;;7.72;;
2576;SDS011;1298;51.252;6.802;2023-11-19T08:47:39;20.75;;;6.78;;
2576;SDS011;1298;51.252;6.802;2023-11-19T08:50:26;21.42;;;5.97;;
2576;SDS011;1298;51.252;6.802;2023-11-19T08:53:12;23.98;;;6.10;;
2576;SDS011;1298;51.252;6.802;2023-11-19T08:55:58;21.42;;;6.57;;
2576;SDS011;1298;51.252;6.802;2023-11-19T08:58:46;22.77;;;6.65;;
2576;SDS011;1298;51.252;6.802;2023-11-19T09:01:33;23.20;;;7.38;;
2576;SDS011;1298;51.252;6.802;2023-11-19T09:04:18;21.45;;;5.80;;
2576;SDS011;1298;51.252;6.802;2023-11-19T09:07:07;18.30;;;6.93;;
2576;SDS011;1298;51.252;6.802;2023-11-19T09:09:53;21.65;;;7.35;;
2576;SDS011;1298;51.252;6.802;2023-11-19T09:12:39;23.65;;;6.43;;
2576;SDS011;1298;51.252;6.802;2023-11-19T09:15:24;25.40;;;8.82;;
2576;SDS011;1298;51.252;6.802;2023-11-19T09:18:10;19.52;;;7.13;;
2576;SDS011;1298;51.252;6.802;2023-11-19T09:20:55;23.10;;;7.20;;
2576;SDS011;1298;51.252;6.802;2023-11-19T09:23:42;24.27;;;8.50;;
2576;SDS011;1298;51.252;6.802;2023-11-19T09:26:28;18.73;;;8.03;;
2576;SDS011;1298;51.252;6.802;2023-11-19T09:29:14;20.50;;;8.30;;
2576;SDS011;1298;51.252;6.802;2023-11-19T09:32:00;20.77;;;6.53;;
2576;SDS011;1298;51.252;6.802;2023-11-19T09:34:46;20.60;;;8.20;;
2576;SDS011;1298;51.252;6.802;2023-11-19T09:37:31;19.70;;;6.70;;
2576;SDS011;1298;51.252;6.802;2023-11-19T09:40:18;18.77;;;6.40;;
2576;SDS011;1298;51.252;6.802;2023-11-19T09:43:04;18.17;;;6.10;;
2576;SDS011;1298;51.252;6.802;2023-11-19T09:45:50;22.63;;;6.93;;
2576;SDS011;1298;51.252;6.802;2023-11-19T09:48:36;24.70;;;8.40;;
2576;SDS011;1298;51.252;6.802;2023-11-19T09:51:23;22.60;;;7.33;;
2576;SDS011;1298;51.252;6.802;2023-11-19T09:54:09;19.67;;;5.90;;
2576;SDS011;1298;51.252;6.802;2023-11-19T09:56:58;17.80;;;5.90;;
2576;SDS011;1298;51.252;6.802;2023-11-19T09:59:46;21.40;;;5.70;;
2576;SDS011;1298;51.252;6.802;2023-11-19T10:02:33;26.17;;;7.20;;
2576;SDS011;1298;51.252;6.802;2023-11-19T10:05:20;22.13;;;6.63;;
2576;SDS011;1298;51.252;6.802;2023-11-19T10:08:08;15.20;;;7.47;;
2576;SDS011;1298;51.252;6.802;2023-11-19T10:10:54;18.20;;;6.80;;
2576;SDS011;1298;51.252;6.802;2023-11-19T10:13:41;19.10;;;6.22;;
2576;SDS011;1298;51.252;6.802;2023-11-19T10:16:28;18.60;;;6.33;;
2576;SDS011;1298;51.252;6.802;2023-11-19T10:19:18;20.87;;;7.27;;
2576;SDS011;1298;51.252;6.802;2023-11-19T10:22:04;26.13;;;7.60;;
2576;SDS011;1298;51.252;6.802;2023-11-19T10:24:50;19.83;;;7.80;;
2576;SDS011;1298;51.252;6.802;2023-11-19T10:27:36;15.75;;;5.55;;
2576;SDS011;1298;51.252;6.802;2023-11-19T10:30:23;22.47;;;7.90;;
2576;SDS011;1298;51.252;6.802;2023-11-19T10:33:11;21.40;;;8.23;;
2576;SDS011;1298;51.252;6.802;2023-11-19T10:36:01;26.67;;;14.17;;
2576;SDS011;1298;51.252;6.802;2023-11-19T10:38:51;22.17;;;6.97;;
2576;SDS011;1298;51.252;6.802;2023-11-19T10:41:38;18.00;;;6.20;;
2576;SDS011;1298;51.252;6.802;2023-11-19T10:44:30;13.60;;;6.20;;
2576;SDS011;1298;51.252;6.802;2023-11-19T10:47:21;20.30;;;6.63;;
2576;SDS011;1298;51.252;6.802;2023-11-19T10:50:08;20.13;;;6.77;;
2576;SDS011;1298;51.252;6.802;2023-11-19T10:52:55;18.43;;;5.90;;
2576;SDS011;1298;51.252;6.802;2023-11-19T10:55:42;24.57;;;8.80;;
2576;SDS011;1298;51.252;6.802;2023-11-19T10:58:32;22.97;;;7.97;;
2576;SDS011;1298;51.252;6.802;2023-11-19T11:01:19;17.43;;;6.60;;
2576;SDS011;1298;51.252;6.802;2023-11-19T11:04:06;27.33;;;6.40;;
2576;SDS011;1298;51.252;6.802;2023-11-19T11:06:58;14.83;;;6.63;;
2576;SDS011;1298;51.252;6.802;2023-11-19T11:09:46;22.63;;;7.57;;
2576;SDS011;1298;51.252;6.802;2023-11-19T11:12:33;16.63;;;7.03;;
2576;SDS011;1298;51.252;6.802;2023-11-19T11:15:21;22.80;;;7.70;;
2576;SDS011;1298;51.252;6.802;2023-11-19T11:18:07;22.60;;;5.80;;
2576;SDS011;1298;51.252;6.802;2023-11-19T11:20:55;18.07;;;8.00;;
2576;SDS011;1298;51.252;6.802;2023-11-19T11:23:47;24.00;;;8.13;;
2576;SDS011;1298;51.252;6.802;2023-11-19T11:30:07;16.27;;;6.00;;
2576;SDS011;1298;51.252;6.802;2023-11-19T11:33:06;15.27;;;6.13;;
2576;SDS011;1298;51.252;6.802;2023-11-19T11:36:09;20.87;;;5.87;;
2576;SDS011;1298;51.252;6.802;2023-11-19T11:39:01;13.47;;;6.40;;
2576;SDS011;1298;51.252;6.802;2023-11-19T11:45:10;17.90;;;6.57;;
2576;SDS011;1298;51.252;6.802;2023-11-19T11:51:04;22.88;;;6.55;;
2576;SDS011;1298;51.252;6.802;2023-11-19T11:53:51;15.43;;;7.90;;
2576;SDS011;1298;51.252;6.802;2023-11-19T11:56:38;18.75;;;7.32;;
2576;SDS011;1298;51.252;6.802;2023-11-19T11:59:24;17.33;;;6.33;;
2576;SDS011;1298;51.252;6.802;2023-11-19T12:02:10;23.20;;;5.53;;
2576;SDS011;1298;51.252;6.802;2023-11-19T12:04:56;18.10;;;6.17;;
2576;SDS011;1298;51.252;6.802;2023-11-19T12:07:44;24.23;;;7.87;;
2576;SDS011;1298;51.252;6.802;2023-11-19T12:10:44;15.80;;;6.43;;
2576;SDS011;1298;51.252;6.802;2023-11-19T12:13:47;15.00;;;6.43;;
2576;SDS011;1298;51.252;6.802;2023-11-19T12:16:38;17.60;;;5.70;;
2576;SDS011;1298;51.252;6.802;2023-11-19T12:19:24;23.40;;;6.37;;
2576;SDS011;1298;51.252;6.802;2023-11-19T12:22:10;16.80;;;6.68;;
2576;SDS011;1298;51.252;6.802;2023-11-19T12:24:56;17.53;;;5.10;;
2576;SDS011;1298;51.252;6.802;2023-11-19T12:27:43;16.43;;;6.10;;
2576;SDS011;1298;51.252;6.802;2023-11-19T12:30:29;12.73;;;5.90;;
2576;SDS011;1298;51.252;6.802;2023-11-19T12:33:15;16.20;;;5.57;;
2576;SDS011;1298;51.252;6.802;2023-11-19T12:36:01;16.50;;;7.13;;
2576;SDS011;1298;51.252;6.802;2023-11-19T12:38:49;15.90;;;6.10;;
2576;SDS011;1298;51.252;6.802;2023-11-19T12:41:48;16.17;;;7.17;;
2576;SDS011;1298;51.252;6.802;2023-11-19T12:44:36;21.07;;;6.40;;
2576;SDS011;1298;51.252;6.802;2023-11-19T12:47:21;16.43;;;6.67;;
2576;SDS011;1298;51.252;6.802;2023-11-19T12:50:07;13.70;;;6.80;;
2576;SDS011;1298;51.252;6.802;2023-11-19T12:52:57;15.77;;;5.03;;
2576;SDS011;1298;51.252;6.802;2023-11-19T12:55:43;20.27;;;7.23;;
2576;SDS011;1298;51.252;6.802;2023-11-19T12:58:29;19.57;;;5.87;;
2576;SDS011;1298;51.252;6.802;2023-11-19T13:01:17;14.07;;;5.20;;
2576;SDS011;1298;51.252;6.802;2023-11-19T13:04:15;13.03;;;5.33;;
2576;SDS011;1298;51.252;6.802;2023-11-19T13:07:00;11.00;;;6.00;;
2576;SDS011;1298;51.252;6.802;2023-11-19T13:09:47;17.37;;;7.50;;
2576;SDS011;1298;51.252;6.802;2023-11-19T13:12:33;16.00;;;6.00;;
2576;SDS011;1298;51.252;6.802;2023-11-19T13:15:22;18.37;;;7.37;;
2576;SDS011;1298;51.252;6.802;2023-11-19T13:18:10;17.23;;;6.93;;
2576;SDS011;1298;51.252;6.802;2023-11-19T13:20:56;17.30;;;7.43;;
2576;SDS011;1298;51.252;6.802;2023-11-19T13:23:41;13.40;;;6.80;;
2576;SDS011;1298;51.252;6.802;2023-11-19T13:26:27;19.67;;;5.97;;
2576;SDS011;1298;51.252;6.802;2023-11-19T13:29:13;19.33;;;6.73;;
2576;SDS011;1298;51.252;6.802;2023-11-19T13:31:59;12.73;;;6.20;;
2576;SDS011;1298;51.252;6.802;2023-11-19T13:34:45;13.47;;;5.40;;
2576;SDS011;1298;51.252;6.802;2023-11-19T13:37:31;14.50;;;4.90;;
2576;SDS011;1298;51.252;6.802;2023-11-19T13:40:17;18.30;;;6.80;;
2576;SDS011;1298;51.252;6.802;2023-11-19T13:43:03;18.53;;;7.47;;
2576;SDS011;1298;51.252;6.802;2023-11-19T13:45:49;17.20;;;5.13;;
2576;SDS011;1298;51.252;6.802;2023-11-19T13:48:36;12.33;;;5.87;;
2576;SDS011;1298;51.252;6.802;2023-11-19T13:51:23;12.90;;;5.13;;
2576;SDS011;1298;51.252;6.802;2023-11-19T13:54:09;11.70;;;5.53;;
2576;SDS011;1298;51.252;6.802;2023-11-19T13:56:57;21.00;;;8.10;;
2576;SDS011;1298;51.252;6.802;2023-11-19T13:59:44;17.50;;;5.77;;
2576;SDS011;1298;51.252;6.802;2023-11-19T14:02:30;23.03;;;6.77;;
2576;SDS011;1298;51.252;6.802;2023-11-19T14:05:15;21.88;;;6.45;;
2576;SDS011;1298;51.252;6.802;2023-11-19T14:08:02;17.07;;;6.83;;
2576;SDS011;1298;51.252;6.802;2023-11-19T14:10:54;20.17;;;7.87;;
2576;SDS011;1298;51.252;6.802;2023-11-19T14:13:40;18.58;;;6.03;;
2576;SDS011;1298;51.252;6.802;2023-11-19T14:16:26;15.10;;;6.83;;
2576;SDS011;1298;51.252;6.802;2023-11-19T14:19:11;20.47;;;7.50;;
2576;SDS011;1298;51.252;6.802;2023-11-19T14:21:57;19.77;;;5.83;;
2576;SDS011;1298;51.252;6.802;2023-11-19T14:24:44;18.93;;;7.00;;
2576;SDS011;1298;51.252;6.802;2023-11-19T14:27:30;14.70;;;6.73;;
2576;SDS011;1298;51.252;6.802;2023-11-19T14:30:15;14.27;;;6.68;;
2576;SDS011;1298;51.252;6.802;2023-11-19T14:33:01;12.27;;;5.57;;
2576;SDS011;1298;51.252;6.802;2023-11-19T14:35:46;23.23;;;7.87;;
2576;SDS011;1298;51.252;6.802;2023-11-19T14:38:32;22.07;;;6.90;;
2576;SDS011;1298;51.252;6.802;2023-11-19T14:41:19;16.33;;;6.80;;
2576;SDS011;1298;51.252;6.802;2023-11-19T14:44:05;21.10;;;8.10;;
2576;SDS011;1298;51.252;6.802;2023-11-19T14:46:51;20.00;;;6.38;;
2576;SDS011;1298;51.252;6.802;2023-11-19T14:49:36;19.83;;;6.90;;
2576;SDS011;1298;51.252;6.802;2023-11-19T14:52:22;21.15;;;7.72;;
2576;SDS011;1298;51.252;6.802;2023-11-19T14:55:08;14.82;;;7.15;;
2576;SDS011;1298;51.252;6.802;2023-11-19T14:57:56;20.13;;;6.38;;
2576;SDS011;1298;51.252;6.802;2023-11-19T15:00:42;19.02;;;8.10;;
2576;SDS011;1298;51.252;6.802;2023-11-19T15:03:28;23.08;;;8.27;;
2576;SDS011;1298;51.252;6.802;2023-11-19T15:06:14;20.05;;;7.85;;
2576;SDS011;1298;51.252;6.802;2023-11-19T15:08:59;16.52;;;6.55;;
2576;SDS011;1298;51.252;6.802;2023-11-19T15:11:45;23.08;;;7.47;;
2576;SDS011;1298;51.252;6.802;2023-11-19T15:14:32;16.95;;;6.75;;
2576;SDS011;1298;51.252;6.802;2023-11-19T15:17:17;19.85;;;5.60;;
2576;SDS011;1298;51.252;6.802;2023-11-19T15:20:03;22.45;;;7.80;;
2576;SDS011;1298;51.252;6.802;2023-11-19T15:22:49;12.77;;;6.55;;
2576;SDS011;1298;51.252;6.802;2023-11-19T15:25:35;14.23;;;6.25;;
2576;SDS011;1298;51.252;6.802;2023-11-19T15:28:21;14.65;;;5.88;;
2576;SDS011;1298;51.252;6.802;2023-11-19T15:31:08;29.30;;;6.93;;
2576;SDS011;1298;51.252;6.802;2023-11-19T15:33:54;23.67;;;7.35;;
2576;SDS011;1298;51.252;6.802;2023-11-19T15:36:40;14.90;;;5.57;;
2576;SDS011;1298;51.252;6.802;2023-11-19T15:39:25;14.43;;;6.38;;
2576;SDS011;1298;51.252;6.802;2023-11-19T15:42:13;20.10;;;6.97;;
2576;SDS011;1298;51.252;6.802;2023-11-19T15:44:58;15.48;;;6.47;;
2576;SDS011;1298;51.252;6.802;2023-11-19T15:47:45;20.30;;;6.70;;
2576;SDS011;1298;51.252;6.802;2023-11-19T15:50:31;12.75;;;5.43;;
2576;SDS011;1298;51.252;6.802;2023-11-19T15:53:17;22.50;;;6.05;;
2576;SDS011;1298;51.252;6.802;2023-11-19T15:56:02;19.00;;;6.25;;
2576;SDS011;1298;51.252;6.802;2023-11-19T15:58:48;20.58;;;7.10;;
2576;SDS011;1298;51.252;6.802;2023-11-19T16:01:34;20.55;;;7.88;;
2576;SDS011;1298;51.252;6.802;2023-11-19T16:04:21;22.58;;;6.15;;
2576;SDS011;1298;51.252;6.802;2023-11-19T16:07:09;10.48;;;4.45;;
2576;SDS011;1298;51.252;6.802;2023-11-19T16:09:54;13.45;;;5.60;;
2576;SDS011;1298;51.252;6.802;2023-11-19T16:12:41;15.27;;;5.40;;
2576;SDS011;1298;51.252;6.802;2023-11-19T16:15:27;24.48;;;7.97;;
2576;SDS011;1298;51.252;6.802;2023-11-19T16:18:12;16.00;;;5.68;;
2576;SDS011;1298;51.252;6.802;2023-11-19T16:20:59;15.43;;;5.00;;
2576;SDS011;1298;51.252;6.802;2023-11-19T16:23:45;15.65;;;6.43;;
2576;SDS011;1298;51.252;6.802;2023-11-19T16:26:31;25.52;;;8.20;;
2576;SDS011;1298;51.252;6.802;2023-11-19T16:29:16;11.10;;;4.50;;
2576;SDS011;1298;51.252;6.802;2023-11-19T16:32:04;19.80;;;5.70;;
2576;SDS011;1298;51.252;6.802;2023-11-19T16:34:53;17.40;;;6.07;;
2576;SDS011;1298;51.252;6.802;2023-11-19T16:37:41;20.35;;;5.00;;
2576;SDS011;1298;51.252;6.802;2023-11-19T16:40:33;11.70;;;5.25;;
2576;SDS011;1298;51.252;6.802;2023-11-19T16:43:22;14.63;;;4.85;;
2576;SDS011;1298;51.252;6.802;2023-11-19T16:46:11;19.15;;;6.60;;
2576;SDS011;1298;51.252;6.802;2023-11-19T16:48:56;14.40;;;6.05;;
2576;SDS011;1298;51.252;6.802;2023-11-19T16:51:44;19.35;;;5.50;;
2576;SDS011;1298;51.252;6.802;2023-11-19T16:54:31;14.52;;;6.53;;
2576;SDS011;1298;51.252;6.802;2023-11-19T16:57:16;23.98;;;7.28;;
2576;SDS011;1298;51.252;6.802;2023-11-19T17:00:05;21.95;;;6.57;;
2576;SDS011;1298;51.252;6.802;2023-11-19T17:02:51;22.95;;;7.82;;
2576;SDS011;1298;51.252;6.802;2023-11-19T17:05:36;18.33;;;6.70;;
2576;SDS011;1298;51.252;6.802;2023-11-19T17:08:24;12.45;;;5.10;;
2576;SDS011;1298;51.252;6.802;2023-11-19T17:11:11;24.00;;;8.30;;
2576;SDS011;1298;51.252;6.802;2023-11-19T17:13:56;14.15;;;7.10;;
2576;SDS011;1298;51.252;6.802;2023-11-19T17:16:42;21.98;;;7.22;;